Time;durP1;ratioP1;P1;durP2;ratioP2;P2;SDS_P1;SDS_P2;PMS_P1;PMS_P2;Temp;Humidity;BMP_temperature;BMP_pressure;BME280_temperature;BME280_humidity;BME280_pressure;Samples;Min_cycle;Max_cycle;Signal;HPM_P1;HPM_P2
2023/01/29 00:01:37;;;;;;;6.97;6.10;;;-1.70;66.40;;;-2.50;66.69;99081.72;5085364;28;20460;-74
2023/01/29 00:04:05;;;;;;;9.17;6.43;;;-1.70;66.70;;;-2.51;66.52;99106.50;5084100;28;20446;-75
2023/01/29 00:06:38;;;;;;;8.20;6.50;;;-1.70;66.60;;;-2.79;67.12;99089.88;5081500;28;20455;-76
2023/01/29 00:09:06;;;;;;;8.17;6.27;;;-1.80;66.40;;;-2.76;67.57;99092.31;5098914;28;20468;-75
2023/01/29 00:11:35;;;;;;;7.00;6.30;;;-1.90;66.60;;;-3.18;67.54;99035.09;5076803;28;20453;-76
2023/01/29 00:14:02;;;;;;;6.00;5.40;;;-1.90;66.90;;;-2.91;67.57;99065.06;5088925;28;20466;-75
2023/01/29 00:16:31;;;;;;;7.30;6.57;;;-1.90;66.70;;;-2.95;66.49;99064.47;5100011;28;20442;-74
2023/01/29 00:18:58;;;;;;;7.33;6.63;;;-1.90;66.80;;;-2.80;66.62;99090.81;5093406;28;20492;-76
2023/01/29 00:21:26;;;;;;;7.43;6.33;;;-1.90;66.40;;;-2.58;66.57;99093.69;5088657;28;20452;-72
2023/01/29 00:23:55;;;;;;;9.30;6.60;;;-1.80;66.40;;;-2.56;66.37;99099.72;5100841;28;20539;-74
2023/01/29 00:26:22;;;;;;;6.97;6.37;;;-1.70;66.30;;;-2.78;66.93;99088.91;5094043;28;20453;-73
2023/01/29 00:28:50;;;;;;;7.53;6.37;;;-1.90;66.50;;;-2.99;67.09;99049.72;5101727;28;20448;-73
2023/01/29 00:31:20;;;;;;;8.13;6.57;;;-1.90;66.50;;;-2.95;67.10;99059.16;5084281;28;20470;-75
2023/01/29 00:33:50;;;;;;;8.70;6.80;;;-2.00;66.50;;;-3.02;68.11;99076.38;5082919;28;20492;-74
2023/01/29 00:36:20;;;;;;;7.50;6.70;;;-2.10;66.80;;;-2.76;67.20;99093.13;5081345;28;20563;-73
2023/01/29 00:38:57;;;;;;;7.10;6.40;;;-2.00;66.90;;;-2.80;66.87;99090.81;5085098;28;20493;-75
2023/01/29 00:46:58;;;;;;;7.00;5.80;;;-1.90;66.40;;;-2.74;67.12;99077.16;5097183;28;20550;-73
2023/01/29 00:49:29;;;;;;;7.43;6.53;;;-2.00;66.70;;;-2.76;67.16;99087.84;5087645;28;20458;-74
2023/01/29 00:54:42;;;;;;;10.17;7.00;;;-2.00;66.70;;;-3.02;66.90;99034.06;5085833;28;20455;-76
2023/01/29 00:57:09;;;;;;;9.10;6.80;;;-2.00;66.50;;;-2.80;66.57;99059.06;5088739;28;20443;-75
2023/01/29 00:59:36;;;;;;;8.23;7.43;;;-1.90;66.30;;;-2.74;66.25;99070.06;5075738;28;20451;-75
2023/01/29 01:04:50;;;;;;;7.10;5.77;;;-1.90;65.80;;;-2.85;66.21;99083.19;5087949;28;20531;-73
2023/01/29 01:07:18;;;;;;;6.77;5.93;;;-1.90;65.80;;;-2.82;66.52;99079.47;5085617;28;20470;-74
2023/01/29 01:12:38;;;;;;;9.27;6.43;;;-2.10;65.90;;;-3.10;67.60;99068.97;5048459;28;20496;-73
2023/01/29 01:15:07;;;;;;;7.47;6.77;;;-2.20;66.50;;;-3.07;67.52;99075.84;5082819;28;20864;-74
2023/01/29 01:17:34;;;;;;;6.37;5.53;;;-2.20;66.40;;;-3.00;67.07;99077.97;5088295;28;20447;-73
2023/01/29 01:20:03;;;;;;;7.63;6.30;;;-2.10;66.50;;;-3.01;67.42;99091.28;5075712;28;20457;-73
2023/01/29 01:22:30;;;;;;;7.60;6.90;;;-2.20;66.30;;;-2.97;67.40;99079.56;5083163;28;21109;-73
2023/01/29 01:24:58;;;;;;;8.73;6.73;;;-2.10;66.40;;;-3.23;67.28;99058.38;5085674;28;20580;-73
2023/01/29 01:27:26;;;;;;;7.93;6.67;;;-2.20;66.30;;;-3.07;66.96;99075.84;5087396;28;20800;-75
2023/01/29 01:29:53;;;;;;;5.93;5.40;;;-2.20;66.00;;;-3.00;67.32;99079.75;5084621;28;20448;-71
2023/01/29 01:32:20;;;;;;;6.57;5.97;;;-2.20;66.30;;;-3.05;67.50;99076.59;5081747;28;20447;-72
2023/01/29 01:34:48;;;;;;;9.23;6.60;;;-2.20;66.20;;;-3.17;67.39;99062.41;5085930;28;20478;-74
2023/01/29 01:37:16;;;;;;;6.83;6.10;;;-2.20;66.40;;;-3.10;67.64;99079.53;5077866;28;20464;-75
2023/01/29 01:39:49;;;;;;;7.17;6.47;;;-2.30;66.90;;;-3.69;67.57;98972.41;5082415;28;20468;-73
2023/01/29 01:42:17;;;;;;;7.73;6.43;;;-2.20;66.60;;;-3.03;67.11;99066.75;5083578;28;20513;-74
2023/01/29 01:44:57;;;;;;;6.90;6.20;;;-2.20;66.40;;;-3.06;67.63;99078.38;5086419;28;20458;-74
2023/01/29 01:47:31;;;;;;;8.00;7.20;;;-2.20;66.40;;;-3.16;67.65;99086.06;5093271;28;20453;-74
2023/01/29 01:50:07;;;;;;;6.97;6.27;;;-2.20;66.30;;;-3.27;67.82;99080.66;5087139;28;20476;-73
2023/01/29 01:52:41;;;;;;;7.60;6.67;;;-2.30;66.10;;;-3.14;67.61;99080.69;5101607;28;20465;-75
2023/01/29 01:55:12;;;;;;;6.73;6.13;;;-2.30;66.40;;;-3.33;68.22;99086.34;5055571;28;20480;-75
2023/01/29 01:57:42;;;;;;;6.97;6.20;;;-2.40;66.50;;;-3.37;68.43;99066.34;5087817;28;20467;-75
2023/01/29 02:00:14;;;;;;;7.03;6.33;;;-2.50;66.90;;;-3.31;67.83;99066.81;5091275;28;20509;-74
2023/01/29 02:11:08;;;;;;;9.20;7.17;;;-2.60;66.80;;;-3.89;68.14;98976.34;5076060;28;20456;-75
2023/01/29 02:13:36;;;;;;;8.30;7.03;;;-2.50;67.00;;;-3.33;68.28;99063.41;5077841;28;20827;-74
2023/01/29 02:16:04;;;;;;;8.70;7.80;;;-2.40;66.90;;;-3.14;67.66;99076.25;5085745;28;20456;-75
2023/01/29 02:18:36;;;;;;;7.47;6.60;;;-2.30;66.80;;;-3.08;67.10;99077.63;5092829;28;21081;-74
2023/01/29 02:21:24;;;;;;;7.63;6.90;;;-2.30;66.50;;;-3.46;67.56;99060.72;5078405;28;20461;-75
2023/01/29 02:24:28;;;;;;;7.40;6.00;;;-2.30;66.10;;;-3.59;67.98;99051.88;5080577;28;21157;-76
2023/01/29 02:27:05;;;;;;;7.83;6.10;;;-2.40;66.60;;;-3.68;68.40;99052.50;5083339;28;20481;-75
2023/01/29 02:29:48;;;;;;;6.07;5.57;;;-2.50;66.60;;;-3.44;67.78;99082.59;5103971;28;20457;-74
2023/01/29 02:32:25;;;;;;;6.87;6.17;;;-2.60;66.60;;;-3.30;67.33;99084.34;5079330;28;20451;-75
2023/01/29 02:35:28;;;;;;;6.93;6.00;;;-2.40;66.40;;;-3.53;67.90;99055.94;5081136;28;20498;-76
2023/01/29 02:38:09;;;;;;;6.23;5.73;;;-2.50;66.20;;;-3.56;67.89;99044.63;5092851;28;20454;-74
2023/01/29 02:40:44;;;;;;;6.60;5.90;;;-2.50;66.40;;;-3.74;67.76;98988.53;5082870;28;20453;-74
2023/01/29 02:43:26;;;;;;;6.53;5.93;;;-2.50;66.30;;;-3.51;67.40;99030.25;5080547;28;20471;-75
2023/01/29 02:46:06;;;;;;;7.40;6.10;;;-2.50;66.00;;;-3.90;67.91;98979.91;5082056;28;20536;-74
2023/01/29 02:48:41;;;;;;;6.93;5.50;;;-2.50;66.20;;;-3.55;67.74;99058.69;5086345;28;20462;-73
2023/01/29 02:51:17;;;;;;;8.10;6.30;;;-2.50;66.00;;;-3.34;67.33;99061.69;5083624;28;20461;-73
2023/01/29 02:53:57;;;;;;;7.90;6.10;;;-2.50;66.30;;;-3.39;67.69;99062.97;5079772;28;20555;-74
2023/01/29 02:56:32;;;;;;;6.67;5.90;;;-2.50;66.40;;;-3.48;67.72;99064.44;5083307;28;20931;-73
2023/01/29 02:59:06;;;;;;;7.90;6.40;;;-2.60;66.10;;;-3.48;67.05;99062.63;5080228;28;20502;-72
2023/01/29 03:01:42;;;;;;;7.20;6.27;;;-2.50;66.20;;;-3.60;68.06;99055.47;5084244;28;20948;-74
2023/01/29 03:04:14;;;;;;;7.30;6.50;;;-2.60;66.60;;;-3.55;67.42;99063.97;5084815;28;20440;-74
2023/01/29 03:06:45;;;;;;;7.50;6.70;;;-2.60;66.10;;;-3.48;67.84;99067.91;5087728;28;20456;-73
2023/01/29 03:09:20;;;;;;;8.67;6.90;;;-2.70;66.40;;;-3.34;67.31;99061.69;5085648;28;20482;-74
2023/01/29 03:11:53;;;;;;;7.30;6.50;;;-2.60;66.70;;;-3.67;67.82;99028.59;5088912;28;20451;-74
2023/01/29 03:15:10;;;;;;;9.43;6.20;;;-2.60;66.70;;;-3.50;68.51;99077.72;5107810;27;20479;-74
2023/01/29 03:17:17;;;;;;;8.30;6.67;;;-2.60;66.70;;;-3.42;67.93;99074.59;5082443;28;20480;-73
2023/01/29 03:19:47;;;;;;;7.30;6.60;;;-2.50;66.30;;;-3.28;67.54;99076.31;5092053;28;20455;-74
2023/01/29 03:22:17;;;;;;;7.60;6.83;;;-2.50;66.50;;;-3.11;66.82;99082.28;5090352;28;20458;-73
2023/01/29 03:33:23;;;;;;;7.10;6.40;;;-2.40;66.30;;;-3.60;66.91;99021.13;5078605;28;20872;-73
2023/01/29 03:35:59;;;;;;;8.03;7.13;;;-2.40;66.00;;;-3.15;66.77;99074.56;5041758;28;1074883;-73
2023/01/29 03:38:28;;;;;;;6.50;5.90;;;-2.40;66.20;;;-3.38;67.88;99077.88;5085206;28;20578;-73
2023/01/29 03:41:02;;;;;;;7.00;6.10;;;-2.50;66.30;;;-3.37;66.92;99079.56;5086889;28;20484;-73
2023/01/29 03:43:35;;;;;;;6.40;5.80;;;-2.50;66.20;;;-3.26;67.03;99079.72;5083999;28;20465;-73
2023/01/29 03:46:08;;;;;;;7.07;6.37;;;-2.40;66.10;;;-3.21;67.21;99097.91;5082341;28;20468;-72
2023/01/29 03:48:41;;;;;;;6.90;6.17;;;-2.40;66.20;;;-3.37;66.98;99046.03;5085936;28;20459;-74
2023/01/29 03:51:25;;;;;;;7.67;6.20;;;-2.40;66.40;;;-3.06;67.13;99085.47;5079762;28;20461;-74
2023/01/29 03:53:58;;;;;;;7.00;6.07;;;-2.40;66.30;;;-3.24;66.61;99067.25;5070313;28;20467;-75
2023/01/29 03:56:44;;;;;;;7.50;6.70;;;-2.40;66.10;;;-3.28;67.10;99081.59;5076966;28;20439;-74
2023/01/29 03:59:21;;;;;;;6.77;6.17;;;-2.50;66.10;;;-3.36;67.27;99087.38;5078820;28;20488;-73
2023/01/29 04:01:54;;;;;;;8.57;6.20;;;-2.50;66.10;;;-3.70;66.60;99024.41;5089289;28;20483;-73
2023/01/29 04:04:27;;;;;;;7.63;6.60;;;-2.50;66.30;;;-3.17;66.79;99084.38;5103771;28;20449;-72
2023/01/29 04:06:58;;;;;;;7.37;6.67;;;-2.40;66.20;;;-3.07;66.54;99095.19;5094418;28;20445;-73
2023/01/29 04:09:34;;;;;;;7.60;6.80;;;-2.40;66.10;;;-3.45;67.71;99091.47;5090832;28;20445;-71
2023/01/29 04:12:08;;;;;;;8.70;7.90;;;-2.50;66.00;;;-3.34;67.48;99076.72;5077820;28;20464;-75
2023/01/29 04:14:35;;;;;;;7.43;6.73;;;-2.50;66.70;;;-3.15;67.03;99103.63;5079134;28;20468;-76
2023/01/29 04:17:09;;;;;;;7.30;6.00;;;-2.40;66.30;;;-3.24;66.97;99104.25;5070644;28;20456;-74
2023/01/29 04:19:39;;;;;;;7.37;6.50;;;-2.40;65.90;;;-3.32;67.07;99086.25;5081718;28;20452;-74
2023/01/29 04:22:13;;;;;;;8.73;7.83;;;-2.40;66.00;;;-3.41;67.50;99105.34;5075924;28;20490;-73
2023/01/29 04:24:41;;;;;;;8.10;6.70;;;-2.50;65.80;;;-3.42;67.13;99099.19;5081992;28;20537;-74
2023/01/29 04:27:27;;;;;;;7.63;6.23;;;-2.50;66.10;;;-3.43;67.31;99073.72;5080931;28;20498;-73
2023/01/29 04:30:23;;;;;;;8.07;7.27;;;-2.50;66.20;;;-3.28;67.19;99092.16;5077169;28;20472;-74
2023/01/29 04:33:05;;;;;;;7.30;6.60;;;-2.50;66.00;;;-3.32;67.22;99085.41;5075354;28;20448;-73
2023/01/29 04:35:50;;;;;;;10.27;7.80;;;-2.50;65.90;;;-3.34;67.14;99069.63;5081822;28;20492;-74
2023/01/29 04:38:37;;;;;;;8.37;7.20;;;-2.50;66.10;;;-3.85;66.36;98981.31;5086224;28;20452;-74
2023/01/29 04:41:12;;;;;;;9.97;7.37;;;-2.50;65.80;;;-3.36;67.06;99079.47;5083063;28;20455;-73
2023/01/29 04:43:46;;;;;;;7.67;6.70;;;-2.60;66.10;;;-3.20;66.91;99084.59;5075989;28;20456;-74
2023/01/29 04:46:18;;;;;;;7.83;7.13;;;-2.40;66.50;;;-3.47;67.50;99085.44;5072498;28;20457;-73
2023/01/29 04:49:01;;;;;;;8.20;7.40;;;-2.50;65.90;;;-3.45;67.50;99078.25;5078504;28;20457;-74
2023/01/29 04:51:44;;;;;;;8.53;7.70;;;-2.50;66.20;;;-3.38;67.74;99107.78;5099794;28;20449;-74
2023/01/29 04:54:22;;;;;;;7.67;6.97;;;-2.60;66.10;;;-3.29;66.95;99098.41;5078188;28;20570;-72
2023/01/29 04:56:56;;;;;;;9.17;7.37;;;-2.50;66.20;;;-3.27;66.52;99092.09;5084648;28;20522;-72
2023/01/29 04:59:30;;;;;;;7.53;6.67;;;-2.40;65.80;;;-3.39;66.88;99068.25;5078877;28;20519;-73
2023/01/29 05:02:01;;;;;;;8.20;7.40;;;-2.40;65.90;;;-3.23;66.53;99094.50;5085732;28;21009;-75
2023/01/29 05:04:32;;;;;;;7.67;6.87;;;-2.40;65.80;;;-3.27;66.74;99078.88;5086133;28;20480;-74
2023/01/29 05:07:04;;;;;;;9.27;7.03;;;-2.50;65.80;;;-3.28;66.90;99074.53;5080988;28;20449;-73
2023/01/29 05:09:32;;;;;;;9.03;7.87;;;-2.50;65.90;;;-3.27;66.64;99067.44;5075498;28;20455;-74
2023/01/29 05:12:01;;;;;;;8.50;7.50;;;-2.50;65.90;;;-3.31;66.93;99077.38;5086625;28;20459;-72
2023/01/29 05:14:34;;;;;;;7.87;6.80;;;-2.60;66.10;;;-3.24;66.71;99071.69;5075037;28;20808;-73
2023/01/29 05:17:05;;;;;;;8.17;7.10;;;-2.50;65.70;;;-3.22;66.95;99054.78;5056661;28;21063;-73
2023/01/29 05:19:33;;;;;;;8.60;7.70;;;-2.50;66.30;;;-3.20;66.97;99076.66;5080408;28;20462;-74
2023/01/29 05:22:05;;;;;;;9.17;7.33;;;-2.40;66.10;;;-3.00;66.39;99072.69;5089112;28;20453;-74
2023/01/29 05:24:33;;;;;;;7.70;6.93;;;-2.40;66.10;;;-3.19;66.08;99059.84;5088600;28;20441;-73
2023/01/29 05:29:47;;;;;;;8.13;7.37;;;-2.50;65.70;;;-3.35;67.72;99080.31;5078050;28;20468;-75
2023/01/29 05:32:15;;;;;;;8.20;7.50;;;-2.60;66.30;;;-3.42;67.54;99070.13;5088684;28;20461;-73
2023/01/29 05:34:42;;;;;;;12.60;7.57;;;-2.60;66.50;;;-3.32;67.58;99059.81;5076815;28;20469;-73
2023/01/29 05:37:11;;;;;;;9.47;7.47;;;-2.60;66.60;;;-3.17;66.43;99052.66;5089467;28;20458;-72
2023/01/29 05:39:38;;;;;;;9.03;7.30;;;-2.50;66.30;;;-3.07;67.40;99044.13;5074957;28;20448;-73
2023/01/29 05:42:06;;;;;;;8.10;7.30;;;-2.40;66.60;;;-3.05;66.11;99044.84;5103437;28;20449;-72
2023/01/29 05:44:33;;;;;;;8.00;7.20;;;-2.30;65.90;;;-3.07;66.57;99052.88;5086813;28;20440;-74
2023/01/29 05:47:01;;;;;;;9.10;6.23;;;-2.30;65.80;;;-3.39;66.82;99003.00;5079568;28;20793;-74
2023/01/29 05:49:29;;;;;;;7.67;6.97;;;-2.40;65.70;;;-3.13;66.12;99040.09;5087576;28;20504;-72
2023/01/29 05:51:56;;;;;;;11.40;6.57;;;-2.40;65.50;;;-3.10;66.08;99010.78;5091097;28;20450;-73
2023/01/29 05:54:25;;;;;;;9.87;8.20;;;-2.30;65.70;;;-3.06;66.93;99024.66;5097979;28;20484;-73
2023/01/29 05:56:52;;;;;;;9.40;7.50;;;-2.40;66.00;;;-3.20;67.29;99025.56;5071585;28;20434;-73
2023/01/29 05:59:20;;;;;;;9.23;7.90;;;-2.50;65.90;;;-3.07;67.07;99030.91;5105708;28;21123;-73
2023/01/29 06:01:47;;;;;;;8.27;7.30;;;-2.40;66.30;;;-3.21;66.74;98985.09;5083809;28;20939;-73
2023/01/29 06:04:15;;;;;;;11.50;8.57;;;-2.30;66.40;;;-3.03;66.57;99021.81;5089140;28;20450;-73
2023/01/29 06:06:42;;;;;;;8.63;7.83;;;-2.30;66.40;;;-3.10;66.91;99020.53;5083832;28;20985;-76
2023/01/29 06:09:11;;;;;;;9.67;8.67;;;-2.30;65.90;;;-3.32;67.09;99017.53;5082579;28;20875;-74
2023/01/29 06:11:39;;;;;;;11.20;8.93;;;-2.30;65.80;;;-3.03;67.71;99008.56;5075243;28;20452;-75
2023/01/29 06:14:07;;;;;;;12.10;8.73;;;-2.30;66.70;;;-3.02;66.88;99026.13;5075810;28;20535;-73
2023/01/29 06:16:34;;;;;;;9.33;8.17;;;-2.20;66.20;;;-2.96;66.90;99023.06;5080185;28;20448;-73
2023/01/29 06:19:02;;;;;;;9.20;7.70;;;-2.20;66.20;;;-3.18;66.66;99029.81;5084561;28;20450;-73
2023/01/29 06:21:29;;;;;;;9.80;8.50;;;-2.30;65.80;;;-3.34;67.51;99029.16;5081736;28;20514;-73
2023/01/29 06:23:56;;;;;;;9.60;8.70;;;-2.50;66.10;;;-3.18;67.26;99044.84;5068312;28;20462;-73
2023/01/29 06:26:24;;;;;;;10.80;8.90;;;-2.50;66.30;;;-3.08;66.99;99040.63;5086357;28;20893;-73
2023/01/29 06:28:53;;;;;;;9.57;8.57;;;-2.40;66.40;;;-3.17;67.01;99036.78;5074683;28;20503;-74
2023/01/29 06:31:20;;;;;;;12.67;9.07;;;-2.40;66.30;;;-3.10;67.50;99020.53;5082635;28;20508;-73
2023/01/29 06:33:47;;;;;;;11.43;10.23;;;-2.30;66.80;;;-3.24;67.50;99018.81;5091034;28;20450;-75
2023/01/29 06:36:14;;;;;;;14.07;9.10;;;-2.30;66.60;;;-3.27;66.95;98999.56;5091794;28;20840;-72
2023/01/29 06:38:42;;;;;;;10.80;9.70;;;-2.30;66.70;;;-3.03;67.40;99035.03;5089834;28;20459;-74
2023/01/29 06:41:13;;;;;;;10.13;8.53;;;-2.30;66.60;;;-2.96;66.52;99038.94;5082160;28;20549;-74
2023/01/29 06:43:40;;;;;;;12.70;8.90;;;-2.20;66.50;;;-3.27;67.67;99035.69;5079555;28;20504;-73
2023/01/29 06:46:09;;;;;;;10.63;9.47;;;-2.40;66.40;;;-3.32;67.97;99043.09;5089317;28;20447;-74
2023/01/29 06:48:36;;;;;;;10.37;9.20;;;-2.40;66.70;;;-3.16;67.35;99053.53;5083552;28;20456;-73
2023/01/29 06:51:06;;;;;;;10.80;9.70;;;-2.40;66.80;;;-3.12;67.40;99039.13;5081456;28;20462;-74
2023/01/29 06:53:35;;;;;;;15.40;10.33;;;-2.30;66.70;;;-2.91;66.95;99052.72;5076978;28;20485;-73
2023/01/29 06:56:02;;;;;;;11.80;9.60;;;-2.20;66.50;;;-3.10;67.04;99036.41;5073614;28;20466;-76
2023/01/29 06:58:30;;;;;;;11.10;9.60;;;-2.30;66.20;;;-2.92;67.36;99072.19;5078249;28;20469;-74
2023/01/29 07:01:04;;;;;;;11.37;9.53;;;-2.20;66.80;;;-3.16;66.85;99038.50;5075774;28;20457;-74
2023/01/29 07:03:33;;;;;;;10.70;8.80;;;-2.20;66.30;;;-3.15;66.93;99066.63;5075184;28;20557;-75
2023/01/29 07:06:00;;;;;;;13.60;9.67;;;-2.30;66.20;;;-2.64;66.60;99067.66;5076911;28;20571;-73
2023/01/29 07:08:27;;;;;;;13.50;9.00;;;-2.00;66.60;;;-2.78;66.27;99067.75;5092762;28;20468;-73
2023/01/29 07:10:59;;;;;;;10.40;8.40;;;-2.00;66.20;;;-2.92;66.74;99066.03;5094056;28;20450;-73
2023/01/29 07:13:27;;;;;;;11.93;9.23;;;-2.10;66.20;;;-2.84;66.50;99074.31;5092330;28;20776;-71
2023/01/29 07:15:54;;;;;;;14.27;10.00;;;-2.10;66.10;;;-2.90;66.84;99067.63;5089333;28;20473;-73
2023/01/29 07:18:22;;;;;;;12.40;10.33;;;-2.10;66.30;;;-2.88;66.24;99068.38;5108178;27;21009;-74
2023/01/29 07:20:50;;;;;;;9.77;8.77;;;-2.10;65.90;;;-2.74;66.13;99066.59;5116544;28;20464;-73
2023/01/29 07:23:18;;;;;;;12.27;9.03;;;-2.00;66.20;;;-2.54;65.69;99065.22;5102550;28;20823;-72
2023/01/29 07:25:45;;;;;;;12.13;9.33;;;-1.90;65.90;;;-2.35;65.20;99069.22;5098553;28;20450;-74
2023/01/29 07:28:13;;;;;;;11.47;8.73;;;-1.70;65.90;;;-2.61;65.66;99064.78;5098550;28;21216;-74
2023/01/29 07:30:40;;;;;;;14.63;9.33;;;-1.80;65.70;;;-3.02;66.64;99012.91;5086377;28;20467;-79
2023/01/29 07:33:10;;;;;;;9.47;8.47;;;-1.90;66.00;;;-3.10;66.58;99009.97;5100614;28;20434;-79
2023/01/29 07:35:39;;;;;;;10.83;9.20;;;-1.90;65.80;;;-2.35;65.19;99075.38;5081684;28;20486;-77
2023/01/29 07:38:08;;;;;;;9.20;7.93;;;-1.70;65.50;;;-2.32;64.34;99064.56;5094755;28;20442;-79
2023/01/29 07:40:35;;;;;;;11.30;9.67;;;-1.50;65.10;;;-2.27;64.04;99069.56;5088387;28;20452;-77
2023/01/29 07:43:06;;;;;;;11.27;10.07;;;-1.50;64.60;;;-2.23;65.13;99067.50;5089291;28;20510;-75
2023/01/29 07:45:36;;;;;;;12.93;9.50;;;-1.50;65.30;;;-2.10;65.44;99064.88;5083284;28;20460;-75
2023/01/29 07:48:04;;;;;;;11.10;9.50;;;-1.40;66.00;;;-2.07;64.71;99067.28;5083905;28;20454;-73
2023/01/29 07:50:33;;;;;;;10.73;9.53;;;-1.40;65.10;;;-1.92;64.04;99071.50;5080347;28;20572;-76
2023/01/29 07:53:01;;;;;;;10.73;9.10;;;-1.30;65.00;;;-2.28;63.94;99079.28;5087540;28;20874;-75
2023/01/29 07:55:30;;;;;;;11.73;9.00;;;-1.40;64.10;;;-2.45;64.58;99080.44;5109473;28;20456;-72
2023/01/29 07:57:58;;;;;;;12.60;9.37;;;-1.50;64.10;;;-2.26;65.00;99060.66;5118477;28;20473;-74
2023/01/29 08:00:25;;;;;;;9.60;8.70;;;-1.40;64.80;;;-2.15;63.62;99076.59;5090171;28;20450;-75
2023/01/29 08:02:53;;;;;;;10.17;8.63;;;-1.30;63.90;;;-2.10;63.87;99097.47;5094965;28;20449;-75
2023/01/29 08:05:21;;;;;;;11.13;9.20;;;-1.40;63.60;;;-2.66;64.68;99064.25;5087802;28;20460;-74
2023/01/29 08:07:53;;;;;;;10.77;9.70;;;-1.50;63.60;;;-2.52;65.14;99105.66;5078130;28;20454;-74
2023/01/29 08:10:21;;;;;;;11.23;9.60;;;-1.60;63.80;;;-2.36;64.52;99105.44;5072261;28;20535;-77
2023/01/29 08:12:55;;;;;;;11.03;8.77;;;-1.50;64.50;;;-2.30;64.97;99107.66;5074650;28;20521;-78
2023/01/29 08:15:22;;;;;;;10.77;8.50;;;-1.60;64.70;;;-1.95;68.40;99108.81;5086828;27;20473;-80
2023/01/29 08:17:50;;;;;;;10.00;9.00;;;-1.40;67.80;;;-1.84;66.36;99089.50;5077156;28;20705;-79
2023/01/29 08:20:18;;;;;;;13.57;9.47;;;-1.20;67.50;;;-1.69;67.44;99113.19;5083711;28;20507;-75
2023/01/29 08:22:46;;;;;;;11.53;8.87;;;-1.10;68.60;;;-1.30;70.53;99111.25;5073644;28;21292;-77
2023/01/29 08:25:13;;;;;;;11.43;10.10;;;-0.90;70.60;;;-1.39;63.91;99109.28;5065315;28;20475;-75
2023/01/29 08:27:41;;;;;;;10.07;9.00;;;-0.80;66.30;;;-1.91;64.44;99098.81;5076157;28;20513;-77
2023/01/29 08:30:12;;;;;;;12.10;9.23;;;-1.00;63.80;;;-1.45;65.65;99116.72;5080599;28;20454;-76
2023/01/29 08:32:39;;;;;;;13.50;10.00;;;-0.90;67.40;;;-1.20;67.10;99114.91;5077725;28;20451;-74
2023/01/29 08:35:07;;;;;;;10.30;9.20;;;-0.70;68.20;;;-1.26;61.54;99120.69;5081092;28;20466;-77
2023/01/29 08:37:34;;;;;;;11.67;10.13;;;-0.60;63.60;;;-1.80;62.55;99104.22;5080738;28;20458;-77
2023/01/29 08:40:02;;;;;;;10.57;9.57;;;-0.80;62.30;;;-1.79;63.18;99108.53;5078342;28;20531;-77
2023/01/29 08:42:29;;;;;;;10.17;9.07;;;-0.90;62.70;;;-1.84;63.28;99110.69;5082756;28;20556;-79
2023/01/29 08:44:56;;;;;;;9.97;8.97;;;-1.00;62.70;;;-1.42;62.07;99105.03;5078735;28;20469;-76
2023/01/29 08:47:25;;;;;;;10.47;9.50;;;-0.90;62.80;;;-1.53;62.13;99116.44;5077700;28;20507;-77
2023/01/29 08:49:52;;;;;;;12.67;10.20;;;-0.90;62.10;;;-1.64;61.72;99103.09;5080870;28;20524;-75
2023/01/29 08:52:20;;;;;;;11.50;10.07;;;-0.90;62.40;;;-0.98;60.95;99118.66;5088351;28;20990;-75
2023/01/29 08:54:47;;;;;;;11.50;9.77;;;-0.60;62.80;;;-0.75;59.56;99124.88;5084508;28;20458;-76
2023/01/29 08:57:14;;;;;;;11.90;10.63;;;-0.30;61.40;;;-0.76;59.77;99119.69;5074552;28;20460;-76
2023/01/29 08:59:41;;;;;;;15.23;11.47;;;-0.20;61.00;;;-1.06;60.80;99103.31;5074938;28;20538;-74
2023/01/29 09:02:11;;;;;;;11.40;10.00;;;-0.30;61.30;;;-0.88;60.07;99113.50;5077930;28;20452;-76
2023/01/29 09:04:40;;;;;;;10.63;9.20;;;-0.30;60.40;;;-0.94;59.83;99112.16;5082561;28;20540;-72
2023/01/29 09:07:07;;;;;;;11.43;9.93;;;-0.10;59.70;;;-0.80;59.68;99118.22;5075681;28;20966;-75
2023/01/29 09:09:34;;;;;;;10.67;9.53;;;-0.20;59.70;;;-1.12;59.07;99033.94;5075383;28;20448;-77
2023/01/29 09:12:02;;;;;;;10.97;9.83;;;-0.10;59.40;;;-0.66;59.33;99107.41;5080805;28;20915;-76
2023/01/29 09:14:29;;;;;;;9.80;8.80;;;0.00;59.50;;;-0.58;58.97;99106.81;5072494;28;20451;-75
2023/01/29 09:16:56;;;;;;;19.20;12.63;;;0.10;59.20;;;-0.45;58.65;99110.25;5077271;28;20479;-76
2023/01/29 09:19:24;;;;;;;12.73;10.37;;;0.20;59.40;;;-0.36;58.86;99099.84;5069045;28;20453;-75
2023/01/29 09:21:52;;;;;;;11.93;9.93;;;0.30;59.20;;;-0.79;59.30;99090.72;5074650;28;20520;-76
2023/01/29 09:24:20;;;;;;;11.40;9.83;;;0.10;59.10;;;-0.45;58.70;99120.84;5085264;28;20450;-76
2023/01/29 09:26:47;;;;;;;12.20;10.90;;;0.30;58.90;;;-0.72;59.00;99068.03;5089883;28;20450;-76
2023/01/29 09:29:14;;;;;;;10.77;9.67;;;0.30;58.90;;;-0.13;57.79;99106.03;5074758;28;20943;-76
2023/01/29 09:31:42;;;;;;;13.07;9.23;;;0.40;58.60;;;-0.34;58.72;99116.50;5074903;28;20462;-74
2023/01/29 09:34:09;;;;;;;11.60;9.83;;;0.40;58.70;;;-0.82;59.52;99086.50;5083415;28;20459;-77
2023/01/29 09:36:36;;;;;;;12.83;10.53;;;0.20;58.60;;;-0.55;58.41;99092.44;5083277;28;20473;-76
2023/01/29 09:39:07;;;;;;;11.70;8.90;;;0.30;58.40;;;-1.00;59.67;99099.31;5097032;28;20509;-75
2023/01/29 09:41:51;;;;;;;9.80;8.80;;;0.00;58.00;;;-1.54;59.88;99016.66;5078970;28;20481;-73
2023/01/29 09:44:33;;;;;;;13.17;10.77;;;-0.10;58.50;;;-0.62;59.50;99087.63;5075939;28;20470;-76
2023/01/29 09:47:06;;;;;;;12.23;10.40;;;-0.10;59.30;;;-0.54;58.78;99080.88;5085374;28;20563;-74
2023/01/29 09:49:40;;;;;;;15.70;12.00;;;0.10;58.80;;;-0.63;59.71;99080.63;5079547;28;20947;-76
2023/01/29 09:52:16;;;;;;;12.90;9.33;;;0.10;58.90;;;-0.46;58.72;99081.13;5083022;28;20442;-78
2023/01/29 09:54:55;;;;;;;11.00;9.37;;;0.30;58.40;;;-0.37;58.46;99059.19;5076127;28;20509;-76
2023/01/29 09:57:29;;;;;;;10.43;9.33;;;0.40;58.30;;;-0.28;57.70;99081.53;5064460;28;21702;-77
2023/01/29 09:59:56;;;;;;;11.53;10.20;;;0.50;57.60;;;-0.92;59.17;99027.97;5060358;28;20867;-81
2023/01/29 10:02:52;;;;;;;11.63;10.27;;;0.30;57.90;;;-0.20;58.16;99064.97;5077554;28;20579;-76
2023/01/29 10:05:42;;;;;;;17.70;13.13;;;0.30;58.00;;;-0.63;58.94;99051.44;5079269;28;20450;-74
2023/01/29 10:08:29;;;;;;;23.67;12.53;;;0.40;58.20;;;-0.14;58.49;99048.56;5077323;28;23401;-76
2023/01/29 10:11:09;;;;;;;13.20;11.20;;;0.40;58.50;;;-0.07;58.98;99055.09;5082606;28;20461;-73
2023/01/29 10:13:45;;;;;;;11.40;10.20;;;0.50;58.80;;;-0.10;57.56;99035.88;5078712;28;20472;-76
2023/01/29 10:16:31;;;;;;;18.90;11.00;;;0.80;57.90;;;0.31;57.27;99066.28;5072264;28;20518;-74
2023/01/29 10:19:33;;;;;;;12.40;11.10;;;0.90;57.70;;;0.13;57.52;99071.25;5076638;28;20474;-76
2023/01/29 10:22:34;;;;;;;23.10;17.47;;;1.00;57.90;;;0.53;63.41;99089.31;5069515;28;20443;-74
2023/01/29 10:25:05;;;;;;;14.10;10.10;;;1.00;61.80;;;0.21;58.96;99082.09;5050769;28;20860;-74
2023/01/29 10:30:32;;;;;;;20.73;12.93;;;1.00;61.70;;;0.81;63.30;99060.41;5078261;28;20541;-76
2023/01/29 10:33:03;;;;;;;13.20;10.03;;;1.20;62.60;;;0.74;58.80;99055.72;5078665;28;20546;-78
2023/01/29 10:35:34;;;;;;;11.87;9.47;;;1.40;59.60;;;0.25;59.43;99061.44;5103325;27;20467;-77
2023/01/29 10:38:25;;;;;;;12.70;10.50;;;1.20;58.40;;;0.91;62.20;99084.47;5080342;28;20490;-74
2023/01/29 10:41:07;;;;;;;16.00;10.70;;;1.40;62.90;;;0.81;60.00;99094.19;5080477;28;20463;-74
2023/01/29 10:43:45;;;;;;;12.50;10.23;;;1.50;60.80;;;0.75;61.78;99089.34;5098968;28;20522;-75
2023/01/29 10:46:26;;;;;;;10.30;9.10;;;1.40;60.70;;;0.47;56.13;99096.94;5079457;28;20455;-76
2023/01/29 10:49:09;;;;;;;11.73;9.70;;;1.30;56.50;;;-0.19;57.39;99101.22;5084547;28;20570;-77
2023/01/29 10:51:55;;;;;;;11.50;9.30;;;0.80;56.30;;;-0.46;57.87;99097.91;5085017;28;20458;-75
2023/01/29 10:54:49;;;;;;;12.23;10.00;;;0.40;56.70;;;-0.29;58.21;99080.66;5077684;28;20584;-75
2023/01/29 10:57:35;;;;;;;11.43;9.00;;;0.40;57.30;;;-0.53;58.06;99079.91;5079607;28;20483;-77
2023/01/29 11:00:25;;;;;;;13.23;10.30;;;0.40;56.80;;;-0.43;58.29;99057.00;5087901;28;20452;-77
2023/01/29 11:02:53;;;;;;;12.83;9.37;;;0.40;57.10;;;-0.22;57.54;99069.56;5105918;28;20460;-78
2023/01/29 11:05:26;;;;;;;12.40;10.17;;;0.50;56.90;;;-0.18;57.24;99047.09;5090928;28;20471;-75
2023/01/29 11:08:04;;;;;;;12.00;9.37;;;0.50;56.70;;;0.23;57.27;99040.31;5109413;27;20454;-80
2023/01/29 11:10:37;;;;;;;10.57;9.17;;;0.80;56.80;;;0.08;56.82;99041.53;5078723;28;20462;-76
2023/01/29 11:13:05;;;;;;;13.60;10.17;;;0.80;56.10;;;0.10;57.14;99031.63;5091378;27;20912;-80
2023/01/29 11:15:34;;;;;;;12.30;9.77;;;0.80;56.30;;;-0.28;57.81;99025.75;5067032;28;20466;-77